createdAt,value
2023-05-19T00:01:53.381Z,19.23
2023-05-19T00:04:21.282Z,20.33
2023-05-19T00:06:51.744Z,13.15
2023-05-19T00:09:18.928Z,14.25
2023-05-19T00:11:46.518Z,19.00
2023-05-19T00:14:13.657Z,16.90
2023-05-19T00:16:42.357Z,18.98
2023-05-19T00:19:12.509Z,18.38
2023-05-19T00:21:39.699Z,16.17
2023-05-19T00:24:07.364Z,25.30
2023-05-19T00:26:34.568Z,25.95
2023-05-19T00:29:01.587Z,19.27
2023-05-19T00:31:32.983Z,14.25
2023-05-19T00:34:00.180Z,18.42
2023-05-19T00:36:27.125Z,20.65
2023-05-19T00:38:54.252Z,19.73
2023-05-19T00:41:21.250Z,15.80
2023-05-19T00:43:48.191Z,16.65
2023-05-19T00:46:15.447Z,21.33
2023-05-19T00:48:44.804Z,18.77
2023-05-19T00:51:14.871Z,20.65
2023-05-19T00:53:42.532Z,25.05
2023-05-19T00:56:09.665Z,13.20
2023-05-19T00:58:36.814Z,13.93
2023-05-19T01:01:05.258Z,15.35
2023-05-19T01:03:35.651Z,16.73
2023-05-19T01:06:07.927Z,14.00
2023-05-19T01:08:37.677Z,23.40
2023-05-19T01:11:08.461Z,15.52
2023-05-19T01:13:36.637Z,13.95
2023-05-19T01:16:27.749Z,16.10
2023-05-19T01:19:19.729Z,19.35
2023-05-19T01:22:01.129Z,22.50
2023-05-19T01:24:28.068Z,17.30
2023-05-19T01:27:10.360Z,18.83
2023-05-19T01:29:54.103Z,21.17
2023-05-19T01:32:23.151Z,15.95
2023-05-19T01:34:52.989Z,18.50
2023-05-19T01:37:22.734Z,17.02
2023-05-19T01:39:51.469Z,18.92
2023-05-19T01:42:19.377Z,18.58
2023-05-19T01:44:47.452Z,18.27
2023-05-19T01:47:15.058Z,21.45
2023-05-19T01:49:42.330Z,20.63
2023-05-19T01:52:09.246Z,26.48
2023-05-19T01:54:36.227Z,21.98
2023-05-19T01:58:02.102Z,18.45
2023-05-19T02:00:55.523Z,18.38
2023-05-19T02:03:33.146Z,19.90
2023-05-19T02:06:15.529Z,23.17
2023-05-19T02:08:58.945Z,16.05
2023-05-19T02:11:28.597Z,29.80
2023-05-19T02:14:01.314Z,19.95
2023-05-19T02:16:29.906Z,16.95
2023-05-19T02:18:57.528Z,20.73
2023-05-19T02:21:24.544Z,24.73
2023-05-19T02:23:51.512Z,16.50
2023-05-19T02:26:18.502Z,25.98
2023-05-19T02:28:45.455Z,20.80
2023-05-19T02:31:12.467Z,19.27
2023-05-19T02:33:39.397Z,25.77
2023-05-19T02:36:06.950Z,25.55
2023-05-19T02:38:33.832Z,27.83
2023-05-19T02:41:01.169Z,17.98
2023-05-19T02:43:30.619Z,17.52
2023-05-19T02:45:57.678Z,31.98
2023-05-19T02:48:24.670Z,23.02
2023-05-19T02:50:51.584Z,23.02
2023-05-19T02:53:18.594Z,24.42
2023-05-19T02:55:45.805Z,26.27
2023-05-19T02:58:12.926Z,26.08
2023-05-19T03:00:39.938Z,25.33
2023-05-19T03:03:06.945Z,23.10
2023-05-19T03:05:33.870Z,29.27
2023-05-19T03:08:01.045Z,22.13
2023-05-19T03:10:28.289Z,25.98
2023-05-19T03:12:55.449Z,27.42
2023-05-19T03:15:23.533Z,22.85
2023-05-19T03:17:50.717Z,19.63
2023-05-19T03:20:18.264Z,22.13
2023-05-19T03:22:45.200Z,24.95
2023-05-19T03:25:12.119Z,30.25
2023-05-19T03:27:39.288Z,27.42
2023-05-19T03:30:06.893Z,26.35
2023-05-19T03:32:37.979Z,15.15
2023-05-19T03:35:05.748Z,22.08
2023-05-19T03:37:32.777Z,14.55
2023-05-19T03:40:00.284Z,27.00
2023-05-19T03:42:27.303Z,36.63
2023-05-19T03:44:54.217Z,21.85
2023-05-19T03:47:21.188Z,34.60
2023-05-19T03:49:48.122Z,27.90
2023-05-19T03:52:15.757Z,20.52
2023-05-19T03:54:43.211Z,23.75
2023-05-19T03:57:13.612Z,28.17
2023-05-19T03:59:41.474Z,27.77
2023-05-19T04:02:08.597Z,29.95
2023-05-19T04:04:35.833Z,25.90
2023-05-19T04:07:02.851Z,24.67
2023-05-19T04:09:32.000Z,22.13
2023-05-19T04:11:58.952Z,35.38
2023-05-19T04:14:25.956Z,20.95
2023-05-19T04:16:53.988Z,24.58
2023-05-19T04:19:20.987Z,32.13
2023-05-19T04:21:47.906Z,32.17
2023-05-19T04:24:14.993Z,23.60
2023-05-19T04:26:45.933Z,30.90
2023-05-19T04:29:13.922Z,29.00
2023-05-19T04:31:41.208Z,25.25
2023-05-19T04:34:08.259Z,20.60
2023-05-19T04:36:35.224Z,29.00
2023-05-19T04:39:03.862Z,17.40
2023-05-19T04:41:30.762Z,22.17
2023-05-19T04:43:57.812Z,37.22
2023-05-19T04:46:26.258Z,23.73
2023-05-19T04:48:57.092Z,34.97
2023-05-19T04:51:30.315Z,27.38
2023-05-19T04:53:57.967Z,24.13
2023-05-19T04:56:24.918Z,20.25
2023-05-19T04:58:53.732Z,27.50
2023-05-19T05:01:25.882Z,35.58
2023-05-19T05:03:58.789Z,25.73
2023-05-19T05:06:26.545Z,27.10
2023-05-19T05:08:53.727Z,27.88
2023-05-19T05:11:21.433Z,27.08
2023-05-19T05:13:49.069Z,30.02
2023-05-19T05:16:16.823Z,16.83
2023-05-19T05:18:45.075Z,20.83
2023-05-19T05:21:12.638Z,34.22
2023-05-19T05:23:39.894Z,25.80
2023-05-19T05:26:15.603Z,16.00
2023-05-19T05:28:42.506Z,14.40
2023-05-19T05:31:09.501Z,10.57
2023-05-19T05:33:37.513Z,19.77
2023-05-19T05:36:06.054Z,18.70
2023-05-19T05:38:33.067Z,11.93
2023-05-19T05:41:00.945Z,12.80
2023-05-19T05:43:27.881Z,19.02
2023-05-19T05:45:54.941Z,12.63
2023-05-19T05:48:22.174Z,18.95
2023-05-19T05:50:50.184Z,12.05
2023-05-19T05:53:19.443Z,17.05
2023-05-19T05:55:47.818Z,14.30
2023-05-19T05:58:15.048Z,11.73
2023-05-19T06:00:47.917Z,15.73
2023-05-19T06:03:14.964Z,14.98
2023-05-19T06:05:42.080Z,21.25
2023-05-19T06:08:09.317Z,11.52
2023-05-19T06:10:38.705Z,22.85
2023-05-19T06:13:05.747Z,16.20
2023-05-19T06:15:32.735Z,11.10
2023-05-19T06:17:59.937Z,10.77
2023-05-19T06:20:27.179Z,13.90
2023-05-19T06:22:54.214Z,15.18
2023-05-19T06:25:21.124Z,20.23
2023-05-19T06:27:48.093Z,16.10
2023-05-19T06:30:15.281Z,6.70
2023-05-19T06:32:42.281Z,14.85
2023-05-19T06:35:09.341Z,9.98
2023-05-19T06:37:36.565Z,15.65
2023-05-19T06:40:03.876Z,16.23
2023-05-19T06:42:31.175Z,13.82
2023-05-19T06:44:58.153Z,17.10
2023-05-19T06:47:25.218Z,13.05
2023-05-19T06:49:55.358Z,18.67
2023-05-19T06:52:23.093Z,18.17
2023-05-19T06:54:50.656Z,11.20
2023-05-19T06:57:17.668Z,14.90
2023-05-19T06:59:46.675Z,13.85
2023-05-19T07:02:14.045Z,11.60
2023-05-19T07:04:42.584Z,11.60
2023-05-19T07:07:09.825Z,9.85
2023-05-19T07:09:36.875Z,6.78
2023-05-19T07:12:04.041Z,14.10
2023-05-19T07:14:31.173Z,7.22
2023-05-19T07:16:58.072Z,6.43
2023-05-19T07:19:25.231Z,12.75
2023-05-19T07:21:52.266Z,8.43
2023-05-19T07:24:21.408Z,7.80
2023-05-19T07:26:48.556Z,5.18
2023-05-19T07:29:15.653Z,13.70
2023-05-19T07:31:42.598Z,12.52
2023-05-19T07:34:10.722Z,8.02
2023-05-19T07:36:37.726Z,11.50
2023-05-19T07:39:04.845Z,6.70
2023-05-19T07:41:32.549Z,10.00
2023-05-19T07:44:00.225Z,11.70
2023-05-19T07:46:27.246Z,7.70
2023-05-19T07:48:54.555Z,14.10
2023-05-19T07:51:21.500Z,9.57
2023-05-19T07:53:48.535Z,10.45
2023-05-19T07:56:15.711Z,9.68
2023-05-19T07:58:42.681Z,5.00
2023-05-19T08:01:09.630Z,5.78
2023-05-19T08:03:36.908Z,11.02
2023-05-19T08:06:04.132Z,8.25
2023-05-19T08:08:35.845Z,11.90
2023-05-19T08:11:04.420Z,6.45
2023-05-19T08:13:31.774Z,8.02
2023-05-19T08:16:00.104Z,11.88
2023-05-19T08:18:27.327Z,14.13
2023-05-19T08:20:54.594Z,7.63
2023-05-19T08:23:22.450Z,9.20
2023-05-19T08:25:49.457Z,13.85
2023-05-19T08:28:16.648Z,5.60
2023-05-19T08:30:43.652Z,7.20
2023-05-19T08:33:10.770Z,6.85
2023-05-19T08:35:38.038Z,7.03
2023-05-19T08:38:04.933Z,7.65
2023-05-19T08:40:33.736Z,9.23
2023-05-19T08:43:00.940Z,7.28
2023-05-19T08:45:28.363Z,10.52
2023-05-19T08:47:55.861Z,7.63
2023-05-19T08:50:30.720Z,7.65
2023-05-19T08:53:03.039Z,7.68
2023-05-19T08:56:02.167Z,7.13
2023-05-19T08:58:30.447Z,8.95
2023-05-19T09:01:00.049Z,3.92
2023-05-19T09:03:28.964Z,9.75
2023-05-19T09:05:56.275Z,9.60
2023-05-19T09:08:23.273Z,7.93
2023-05-19T09:10:50.463Z,6.80
2023-05-19T09:13:17.604Z,12.02
2023-05-19T09:15:45.596Z,7.80
2023-05-19T09:18:15.305Z,9.90
2023-05-19T09:20:47.489Z,13.77
2023-05-19T09:23:16.291Z,9.40
2023-05-19T09:25:53.492Z,7.90
2023-05-19T09:28:28.078Z,7.28
2023-05-19T09:31:08.464Z,9.48
2023-05-19T09:33:45.539Z,9.60
2023-05-19T09:36:13.658Z,9.02
2023-05-19T09:38:41.337Z,8.30
2023-05-19T09:41:09.582Z,7.03
2023-05-19T09:43:36.888Z,9.77
2023-05-19T09:46:13.730Z,9.50
2023-05-19T09:48:41.498Z,8.93
2023-05-19T09:51:10.880Z,6.22
2023-05-19T09:53:39.154Z,9.07
2023-05-19T09:56:08.900Z,9.32
2023-05-19T09:58:36.647Z,6.03
2023-05-19T10:01:05.757Z,8.73
2023-05-19T10:03:34.514Z,8.75
2023-05-19T10:06:04.036Z,7.25
2023-05-19T10:08:32.155Z,7.28
2023-05-19T10:11:00.128Z,9.18
2023-05-19T10:13:29.235Z,8.50
2023-05-19T10:15:59.220Z,4.88
2023-05-19T10:18:29.315Z,8.98
2023-05-19T10:20:57.988Z,13.82
2023-05-19T10:23:26.114Z,6.95
2023-05-19T10:25:56.088Z,5.95
2023-05-19T10:28:28.155Z,7.65
2023-05-19T10:30:58.790Z,5.30
2023-05-19T10:33:49.689Z,5.95
2023-05-19T10:36:33.242Z,5.90
2023-05-19T10:39:22.925Z,5.35
2023-05-19T10:42:04.292Z,10.30
2023-05-19T10:44:40.528Z,9.60
2023-05-19T10:47:08.677Z,10.48
2023-05-19T10:49:36.877Z,4.55
2023-05-19T10:52:04.888Z,9.75
2023-05-19T10:54:47.380Z,9.60
2023-05-19T10:57:25.099Z,11.38
2023-05-19T10:59:52.075Z,15.15
2023-05-19T11:02:39.885Z,5.55
2023-05-19T11:05:13.021Z,9.20
2023-05-19T11:07:43.518Z,6.85
2023-05-19T11:10:11.126Z,6.85
2023-05-19T11:12:43.372Z,6.95
2023-05-19T11:15:17.131Z,18.13
2023-05-19T11:17:48.644Z,8.82
2023-05-19T11:20:26.394Z,6.82
2023-05-19T11:23:08.517Z,6.03
2023-05-19T11:26:02.180Z,14.23
2023-05-19T11:28:30.596Z,12.88
2023-05-19T11:30:59.143Z,11.18
2023-05-19T11:33:27.675Z,6.97
2023-05-19T11:35:58.510Z,6.28
2023-05-19T11:38:26.587Z,3.88
2023-05-19T11:40:55.209Z,8.35
2023-05-19T11:43:26.211Z,7.53
2023-05-19T11:45:56.439Z,5.45
2023-05-19T11:48:24.737Z,4.20
2023-05-19T11:50:52.525Z,6.03
2023-05-19T11:53:20.188Z,6.50
2023-05-19T11:55:48.323Z,8.57
2023-05-19T11:58:16.271Z,4.70
2023-05-19T12:00:46.115Z,6.05
2023-05-19T12:03:13.747Z,6.40
2023-05-19T12:05:46.763Z,7.20
2023-05-19T12:08:14.610Z,8.25
2023-05-19T12:10:41.738Z,6.57
2023-05-19T12:13:11.818Z,12.50
2023-05-19T12:15:39.263Z,5.28
2023-05-19T12:18:06.789Z,5.97
2023-05-19T12:20:36.046Z,11.88
2023-05-19T12:23:04.042Z,5.78
2023-05-19T12:25:31.923Z,3.35
2023-05-19T12:28:05.489Z,11.13
2023-05-19T12:30:33.364Z,7.07
2023-05-19T12:33:02.260Z,10.73
2023-05-19T12:35:33.335Z,8.80
2023-05-19T12:38:09.661Z,3.47
2023-05-19T12:40:40.282Z,7.35
2023-05-19T12:43:09.615Z,8.57
2023-05-19T12:45:37.531Z,6.55
2023-05-19T12:48:16.246Z,6.75
2023-05-19T12:50:47.325Z,11.52
2023-05-19T12:53:15.325Z,13.48
2023-05-19T12:55:43.934Z,8.95
2023-05-19T12:58:12.765Z,11.82
2023-05-19T13:00:47.864Z,7.72
2023-05-19T13:03:17.397Z,7.18
2023-05-19T13:05:46.736Z,8.60
2023-05-19T13:08:18.681Z,10.10
2023-05-19T13:10:46.910Z,12.25
2023-05-19T13:13:15.247Z,7.50
2023-05-19T13:15:44.619Z,10.75
2023-05-19T13:18:13.009Z,8.07
2023-05-19T13:20:42.124Z,9.88
2023-05-19T13:23:13.404Z,9.90
2023-05-19T13:25:41.266Z,5.78
2023-05-19T13:28:08.626Z,10.35
2023-05-19T13:30:38.018Z,9.88
2023-05-19T13:33:05.620Z,6.07
2023-05-19T13:35:38.001Z,7.68
2023-05-19T13:38:06.844Z,8.55
2023-05-19T13:40:35.038Z,6.43
2023-05-19T13:43:03.019Z,9.80
2023-05-19T13:45:30.347Z,10.30
2023-05-19T13:47:57.396Z,13.75
2023-05-19T13:50:24.423Z,12.80
2023-05-19T13:52:51.340Z,12.35
2023-05-19T13:55:19.015Z,10.07
2023-05-19T13:57:45.977Z,10.55
2023-05-19T14:00:13.403Z,9.98
2023-05-19T14:02:40.630Z,10.25
2023-05-19T14:05:08.098Z,13.63
2023-05-19T14:07:35.682Z,18.80
2023-05-19T14:10:06.982Z,11.00
2023-05-19T14:12:55.022Z,19.50
2023-05-19T14:15:24.089Z,8.45
2023-05-19T14:17:51.072Z,11.80
2023-05-19T14:20:18.084Z,8.75
2023-05-19T14:22:45.059Z,9.82
2023-05-19T14:25:12.047Z,5.95
2023-05-19T14:27:40.123Z,11.93
2023-05-19T14:30:08.488Z,12.50
2023-05-19T14:32:36.036Z,13.25
2023-05-19T14:35:03.287Z,9.00
2023-05-19T14:37:31.864Z,16.08
2023-05-19T14:39:59.034Z,8.55
2023-05-19T14:42:25.983Z,11.20
2023-05-19T14:44:53.071Z,9.75
2023-05-19T14:47:20.104Z,14.98
2023-05-19T14:49:47.181Z,9.65
2023-05-19T14:52:14.093Z,11.48
2023-05-19T14:54:41.125Z,8.80
2023-05-19T14:57:08.240Z,12.13
2023-05-19T14:59:38.521Z,14.70
2023-05-19T15:02:06.107Z,16.20
2023-05-19T15:04:33.291Z,12.73
2023-05-19T15:09:30.235Z,10.13
2023-05-19T15:11:57.330Z,12.70
2023-05-19T15:14:24.312Z,9.25
2023-05-19T15:16:51.470Z,8.48
2023-05-19T15:19:18.696Z,7.50
2023-05-19T15:21:45.846Z,8.43
2023-05-19T15:24:14.188Z,18.80
2023-05-19T15:26:41.165Z,9.95
2023-05-19T15:29:09.660Z,8.50
2023-05-19T15:31:38.271Z,12.60
2023-05-19T15:34:05.942Z,7.72
2023-05-19T15:36:32.859Z,12.60
2023-05-19T15:38:59.952Z,15.40
2023-05-19T15:41:26.942Z,9.32
2023-05-19T15:43:53.944Z,8.65
2023-05-19T15:46:21.034Z,11.55
2023-05-19T15:48:48.045Z,9.77
2023-05-19T15:51:15.104Z,10.07
2023-05-19T15:53:42.360Z,15.32
2023-05-19T15:56:09.388Z,11.65
2023-05-19T15:58:36.320Z,16.52
2023-05-19T16:01:03.520Z,6.45
2023-05-19T16:03:30.876Z,13.00
2023-05-19T16:05:57.956Z,12.68
2023-05-19T16:08:25.439Z,11.73
2023-05-19T16:10:52.528Z,12.15
2023-05-19T16:13:19.488Z,17.13
2023-05-19T16:15:46.583Z,12.05
2023-05-19T16:18:13.747Z,9.85
2023-05-19T16:20:40.822Z,11.43
2023-05-19T16:23:07.935Z,21.73
2023-05-19T16:25:34.895Z,4.82
2023-05-19T16:28:02.332Z,5.38
2023-05-19T16:30:29.329Z,7.45
2023-05-19T16:32:56.411Z,20.30
2023-05-19T16:35:23.582Z,10.40
2023-05-19T16:37:50.585Z,18.58
2023-05-19T16:40:17.602Z,13.20
2023-05-19T16:42:44.585Z,8.32
2023-05-19T16:45:11.765Z,9.68
2023-05-19T16:47:38.839Z,14.27
2023-05-19T16:50:06.532Z,17.50
2023-05-19T16:52:33.699Z,7.75
2023-05-19T16:55:00.711Z,6.18
2023-05-19T16:57:27.761Z,7.18
2023-05-19T16:59:54.758Z,8.38
2023-05-19T17:02:21.780Z,6.90
2023-05-19T17:04:51.827Z,10.27
2023-05-19T17:07:18.976Z,10.80
2023-05-19T17:09:45.944Z,12.25
2023-05-19T17:12:13.388Z,13.00
2023-05-19T17:14:42.299Z,11.50
2023-05-19T17:17:09.530Z,7.28
2023-05-19T17:19:36.635Z,9.98
2023-05-19T17:22:03.896Z,16.60
2023-05-19T17:24:33.300Z,10.95
2023-05-19T17:27:00.929Z,8.63
2023-05-19T17:29:28.087Z,11.82
2023-05-19T17:31:55.509Z,11.23
2023-05-19T17:34:22.591Z,12.75
2023-05-19T17:36:49.805Z,14.15
2023-05-19T17:39:17.086Z,11.55
2023-05-19T17:41:44.008Z,15.68
2023-05-19T17:44:11.354Z,5.32
2023-05-19T17:46:39.391Z,14.00
2023-05-19T17:49:06.758Z,8.40
2023-05-19T17:51:34.076Z,16.15
2023-05-19T17:54:01.393Z,8.15
2023-05-19T17:56:33.201Z,8.68
2023-05-19T17:59:01.421Z,13.53
2023-05-19T18:01:28.647Z,18.00
2023-05-19T18:03:56.051Z,11.63
2023-05-19T18:06:25.392Z,11.27
2023-05-19T18:08:54.451Z,10.80
2023-05-19T18:11:21.657Z,10.18
2023-05-19T18:13:48.666Z,10.07
2023-05-19T18:16:15.655Z,7.50
2023-05-19T18:18:44.903Z,10.65
2023-05-19T18:21:14.332Z,26.15
2023-05-19T18:23:42.027Z,11.85
2023-05-19T18:26:13.037Z,11.98
2023-05-19T18:28:40.896Z,5.18
2023-05-19T18:31:17.259Z,15.90
2023-05-19T18:33:45.008Z,10.27
2023-05-19T18:36:12.334Z,8.30
2023-05-19T18:38:40.649Z,12.07
2023-05-19T18:41:08.290Z,14.93
2023-05-19T18:43:35.462Z,16.40
2023-05-19T18:46:02.484Z,11.00
2023-05-19T18:48:29.751Z,8.43
2023-05-19T18:50:57.307Z,7.78
2023-05-19T18:53:24.291Z,10.07
2023-05-19T18:55:51.322Z,7.63
2023-05-19T18:58:18.804Z,11.00
2023-05-19T19:00:45.830Z,12.77
2023-05-19T19:03:12.904Z,16.50
2023-05-19T19:05:40.083Z,9.90
2023-05-19T19:08:07.105Z,5.40
2023-05-19T19:10:38.983Z,23.33
2023-05-19T19:13:06.483Z,9.15
2023-05-19T19:15:33.413Z,15.27
2023-05-19T19:18:00.596Z,7.40
2023-05-19T19:20:27.769Z,12.38
2023-05-19T19:22:54.942Z,8.07
2023-05-19T19:25:23.564Z,6.53
2023-05-19T19:27:51.230Z,10.73
2023-05-19T19:30:18.591Z,5.97
2023-05-19T19:32:45.653Z,12.35
2023-05-19T19:35:13.053Z,6.28
2023-05-19T19:37:43.158Z,8.88
2023-05-19T19:40:10.717Z,25.65
2023-05-19T19:42:41.016Z,8.65
2023-05-19T19:45:08.505Z,5.15
2023-05-19T19:47:35.887Z,9.57
2023-05-19T19:50:05.851Z,11.63
2023-05-19T19:52:32.936Z,14.00
2023-05-19T19:55:00.006Z,8.73
2023-05-19T19:57:29.113Z,17.45
2023-05-19T19:59:59.177Z,12.30
2023-05-19T20:02:26.742Z,14.65
2023-05-19T20:04:53.776Z,57.65
2023-05-19T20:07:23.371Z,6.78
2023-05-19T20:09:56.432Z,8.38
2023-05-19T20:12:25.147Z,10.98
2023-05-19T20:14:55.460Z,20.52
2023-05-19T20:17:25.455Z,15.10
2023-05-19T20:22:26.861Z,23.95
2023-05-19T20:24:53.763Z,13.35
2023-05-19T20:27:20.894Z,19.23
2023-05-19T20:29:50.950Z,16.23
2023-05-19T20:32:20.189Z,10.98
2023-05-19T20:34:47.225Z,12.57
2023-05-19T20:37:14.364Z,15.23
2023-05-19T20:39:41.328Z,15.73
2023-05-19T20:42:08.689Z,6.25
2023-05-19T20:44:35.666Z,17.55
2023-05-19T20:47:04.265Z,16.73
2023-05-19T20:49:31.376Z,10.52
2023-05-19T20:51:58.337Z,18.13
2023-05-19T20:54:25.373Z,15.60
2023-05-19T20:56:52.399Z,19.60
2023-05-19T20:59:19.420Z,28.15
2023-05-19T21:01:46.670Z,15.77
2023-05-19T21:04:14.730Z,10.38
2023-05-19T21:06:41.946Z,16.23
2023-05-19T21:09:09.590Z,13.02
2023-05-19T21:11:36.651Z,17.30
2023-05-19T21:14:06.451Z,10.10
2023-05-19T21:16:34.178Z,14.35
2023-05-19T21:19:02.006Z,15.73
2023-05-19T21:21:29.057Z,24.02
2023-05-19T21:23:56.851Z,9.95
2023-05-19T21:26:23.828Z,13.07
2023-05-19T21:28:51.222Z,17.92
2023-05-19T21:31:18.614Z,14.85
2023-05-19T21:33:45.766Z,9.90
2023-05-19T21:36:12.712Z,19.00
2023-05-19T21:38:40.122Z,14.93
2023-05-19T21:41:07.015Z,16.88
2023-05-19T21:43:34.051Z,12.25
2023-05-19T21:46:01.067Z,15.77
2023-05-19T21:48:28.142Z,11.02
2023-05-19T21:50:59.938Z,18.70
2023-05-19T21:53:26.984Z,20.92
2023-05-19T21:55:53.930Z,16.15
2023-05-19T21:58:21.016Z,16.13
2023-05-19T22:00:52.643Z,17.60
2023-05-19T22:03:20.119Z,16.35
2023-05-19T22:05:50.808Z,17.38
2023-05-19T22:08:19.175Z,15.43
2023-05-19T22:10:50.167Z,18.25
2023-05-19T22:13:17.318Z,36.40
2023-05-19T22:15:45.387Z,12.23
2023-05-19T22:18:12.876Z,15.13
2023-05-19T22:20:40.096Z,12.85
2023-05-19T22:23:07.547Z,19.40
2023-05-19T22:25:34.568Z,13.57
2023-05-19T22:28:03.268Z,19.30
2023-05-19T22:30:30.807Z,15.02
2023-05-19T22:32:57.864Z,13.95
2023-05-19T22:35:25.049Z,20.63
2023-05-19T22:37:52.078Z,14.25
2023-05-19T22:40:19.141Z,20.15
2023-05-19T22:42:46.343Z,9.07
2023-05-19T22:45:13.385Z,13.05
2023-05-19T22:47:40.635Z,12.20
2023-05-19T22:50:10.198Z,27.17
2023-05-19T22:52:37.542Z,11.57
2023-05-19T22:55:06.531Z,13.88
2023-05-19T22:57:33.428Z,15.60
2023-05-19T23:00:00.606Z,18.27
2023-05-19T23:02:27.574Z,13.57
2023-05-19T23:04:55.396Z,13.40
2023-05-19T23:07:22.350Z,19.25
2023-05-19T23:09:49.518Z,18.80
2023-05-19T23:12:16.769Z,21.30
2023-05-19T23:14:43.846Z,16.33
2023-05-19T23:17:10.875Z,12.65
2023-05-19T23:19:38.050Z,14.93
2023-05-19T23:22:05.282Z,12.65
2023-05-19T23:24:32.453Z,12.45
2023-05-19T23:27:01.021Z,13.18
2023-05-19T23:29:28.092Z,18.77
2023-05-19T23:31:55.151Z,15.93
2023-05-19T23:34:22.226Z,25.00
2023-05-19T23:36:49.232Z,17.55
2023-05-19T23:39:16.416Z,19.88
2023-05-19T23:41:43.454Z,13.30
2023-05-19T23:44:10.502Z,16.83
2023-05-19T23:46:37.506Z,13.57
2023-05-19T23:49:04.812Z,17.25
2023-05-19T23:51:32.261Z,13.88
2023-05-19T23:53:59.333Z,19.77
2023-05-19T23:56:26.526Z,14.95
2023-05-19T23:58:53.624Z,10.77
